Gold Point — 9HA2669 — position and weather

sailwx.info

Track history (hours):
 
Tides and Currents Weather Stations Pressure Air Temp Water Temp Dewpoint Dewpoint Depression Visibility Wind Speed Wind Dir Waves Ship Positions

Gold Point

Last reported at 2018-Jan-19 20:46 UTC. Time now 2018-Jan-21 18:05 UTC.
Position N 06°47' W 015°24'.

Length 183 m; draft 11.2 m.

Type: Tanker. MMSI: 215193000.

Date/timePositionNaut miles runAvg speedWind from/ knotsBaromVisibWave heightAir tempDewpointWater temp
2018-Jan-19 20:46N 06°47' W 015°24'6513.7
2018-Jan-19 15:59N 07°33' W 016°12'713.8
2018-Jan-19 15:30N 07°37' W 016°17'1213.8
2018-Jan-19 14:36N 07°46' W 016°26'113.9
2018-Jan-19 14:30N 07°46' W 016°27'1013.7
2018-Jan-19 13:46N 07°53' W 016°34'413.8
2018-Jan-19 13:29N 07°56' W 016°37'1914.0
2018-Jan-19 12:07N 08°09' W 016°51'213.7
2018-Jan-19 11:56N 08°11' W 016°53'613.6
2018-Jan-19 11:30N 08°15' W 016°57'713.7
2018-Jan-19 11:00N 08°20' W 017°02'713.4
2018-Jan-19 10:29N 08°25' W 017°07'713.6
2018-Jan-19 10:00N 08°29' W 017°12'713.6
2018-Jan-19 09:30N 08°34' W 017°17'4712.8
2018-Jan-19 05:50N 09°06' W 017°51'3612.4
2018-Jan-19 02:54N 09°31' W 018°18'512.2
2018-Jan-19 02:30N 09°35' W 018°22'  
2018-Jan-10 17:00N 49°41' W 004°06'912.9
2018-Jan-10 16:17N 49°44' W 003°53'312.7
2018-Jan-10 16:00N 49°46' W 003°48'812.5
2018-Jan-10 15:22N 49°48' W 003°36'612.3
2018-Jan-10 14:51N 49°51' W 003°27'412.2
2018-Jan-10 14:30N 49°52' W 003°21'611.9
2018-Jan-10 14:00N 49°54' W 003°13'612.0
2018-Jan-10 13:30N 49°57' W 003°04'611.9
2018-Jan-10 13:00N 49°60' W 002°56'612.1
2018-Jan-10 12:30N 50°01' W 002°47'612.3
2018-Jan-10 12:00N 50°03' W 002°37'712.5
2018-Jan-10 11:28N 50°05' W 002°28'6414.4
2018-Jan-10 07:04N 50°22' W 000°52'214.2
2018-Jan-10 06:57N 50°23' W 000°50'1613.8
2018-Jan-10 05:47N 50°28' W 000°26'413.3
2018-Jan-10 05:31N 50°29' W 000°20'712.9
2018-Jan-10 04:59N 50°31' W 000°10'612.5
2018-Jan-10 04:31N 50°32' W 000°01'612.1
2018-Jan-10 04:01N 50°34' E 000°08'611.8
2018-Jan-10 03:30N 50°35' E 000°17'611.4
2018-Jan-10 03:00N 50°37' E 000°26'611.5
2018-Jan-10 02:30N 50°38' E 000°35'612.0
2018-Jan-10 02:00N 50°42' E 000°42'612.5
2018-Jan-10 01:31N 50°45' E 000°51'713.0
2018-Jan-10 01:00N 50°49' E 000°59'713.6
2018-Jan-10 00:30N 50°53' E 001°08'714.1
2018-Jan-10 00:00N 50°58' E 001°16'714.3
2018-Jan-09 23:30N 51°03' E 001°24'713.9
2018-Jan-09 23:00N 51°07' E 001°33'713.2
2018-Jan-09 22:30N 51°11' E 001°41'612.7
2018-Jan-09 22:01N 51°16' E 001°47'612.3
2018-Jan-09 21:30N 51°21' E 001°52'611.8
2018-Jan-09 21:00N 51°27' E 001°56'  
Track history (hours):
 
Tides and Currents Weather Stations Pressure Air Temp Water Temp Dewpoint Dewpoint Depression Visibility Wind Speed Wind Dir Waves Ship Positions

Gold Point

Last reported at 2018-Jan-19 20:46 UTC. Time now 2018-Jan-21 18:05 UTC.
Position N 06°47' W 015°24'.

Length 183 m; draft 11.2 m.

Type: Tanker. MMSI: 215193000.

Date/timePositionNaut miles runAvg speedWind from/ knotsBaromVisibWave heightAir tempDewpointWater temp
2018-Jan-19 20:46N 06°47' W 015°24'6513.7
2018-Jan-19 15:59N 07°33' W 016°12'713.8
2018-Jan-19 15:30N 07°37' W 016°17'1213.8
2018-Jan-19 14:36N 07°46' W 016°26'113.9
2018-Jan-19 14:30N 07°46' W 016°27'1013.7
2018-Jan-19 13:46N 07°53' W 016°34'413.8
2018-Jan-19 13:29N 07°56' W 016°37'1914.0
2018-Jan-19 12:07N 08°09' W 016°51'213.7
2018-Jan-19 11:56N 08°11' W 016°53'613.6
2018-Jan-19 11:30N 08°15' W 016°57'713.7
2018-Jan-19 11:00N 08°20' W 017°02'713.4
2018-Jan-19 10:29N 08°25' W 017°07'713.6
2018-Jan-19 10:00N 08°29' W 017°12'713.6
2018-Jan-19 09:30N 08°34' W 017°17'4712.8
2018-Jan-19 05:50N 09°06' W 017°51'3612.4
2018-Jan-19 02:54N 09°31' W 018°18'512.2
2018-Jan-19 02:30N 09°35' W 018°22'  
2018-Jan-10 17:00N 49°41' W 004°06'912.9
2018-Jan-10 16:17N 49°44' W 003°53'312.7
2018-Jan-10 16:00N 49°46' W 003°48'812.5
2018-Jan-10 15:22N 49°48' W 003°36'612.3
2018-Jan-10 14:51N 49°51' W 003°27'412.2
2018-Jan-10 14:30N 49°52' W 003°21'611.9
2018-Jan-10 14:00N 49°54' W 003°13'612.0
2018-Jan-10 13:30N 49°57' W 003°04'611.9
2018-Jan-10 13:00N 49°60' W 002°56'612.1
2018-Jan-10 12:30N 50°01' W 002°47'612.3
2018-Jan-10 12:00N 50°03' W 002°37'712.5
2018-Jan-10 11:28N 50°05' W 002°28'6414.4
2018-Jan-10 07:04N 50°22' W 000°52'214.2
2018-Jan-10 06:57N 50°23' W 000°50'1613.8
2018-Jan-10 05:47N 50°28' W 000°26'413.3
2018-Jan-10 05:31N 50°29' W 000°20'712.9
2018-Jan-10 04:59N 50°31' W 000°10'612.5
2018-Jan-10 04:31N 50°32' W 000°01'612.1
2018-Jan-10 04:01N 50°34' E 000°08'611.8
2018-Jan-10 03:30N 50°35' E 000°17'611.4
2018-Jan-10 03:00N 50°37' E 000°26'611.5
2018-Jan-10 02:30N 50°38' E 000°35'612.0
2018-Jan-10 02:00N 50°42' E 000°42'612.5
2018-Jan-10 01:31N 50°45' E 000°51'713.0
2018-Jan-10 01:00N 50°49' E 000°59'713.6
2018-Jan-10 00:30N 50°53' E 001°08'714.1
2018-Jan-10 00:00N 50°58' E 001°16'714.3
2018-Jan-09 23:30N 51°03' E 001°24'713.9
2018-Jan-09 23:00N 51°07' E 001°33'713.2
2018-Jan-09 22:30N 51°11' E 001°41'612.7
2018-Jan-09 22:01N 51°16' E 001°47'612.3
2018-Jan-09 21:30N 51°21' E 001°52'611.8
2018-Jan-09 21:00N 51°27' E 001°56'  

Dump ship's entire track history